Time;durP1;ratioP1;P1;durP2;ratioP2;P2;SDS_P1;SDS_P2;PMS_P1;PMS_P2;Temp;Humidity;BMP_temperature;BMP_pressure;BME280_temperature;BME280_humidity;BME280_pressure;Samples;Min_cycle;Max_cycle;Signal;HPM_P1;HPM_P2
2022/09/17 00:02:06;;;;;;;10.33;3.23;;;;;;;9.47;100.00;101191.63;5261209;28;20028;-67
2022/09/17 00:04:37;;;;;;;19.83;4.13;;;;;;;9.51;100.00;101200.28;5263223;28;20029;-66
2022/09/17 00:07:08;;;;;;;15.40;3.77;;;;;;;9.51;100.00;101200.28;5262958;28;20443;-66
2022/09/17 00:09:40;;;;;;;11.27;3.20;;;;;;;9.49;100.00;101203.75;5263241;28;20085;-67
2022/09/17 00:12:11;;;;;;;13.43;3.93;;;;;;;9.51;100.00;101214.16;5262926;28;20040;-67
2022/09/17 00:14:43;;;;;;;9.57;3.43;;;;;;;9.48;100.00;101215.03;5278449;28;20495;-66
2022/09/17 00:17:14;;;;;;;11.30;2.53;;;;;;;9.49;100.00;101213.28;5262908;28;20037;-66
2022/09/17 00:19:45;;;;;;;15.63;4.63;;;;;;;9.52;100.00;101215.03;5261619;28;20025;-67
2022/09/17 00:22:17;;;;;;;12.20;3.50;;;;;;;9.52;100.00;101215.03;5262437;28;20375;-66
2022/09/17 00:24:48;;;;;;;18.23;3.30;;;;;;;9.53;100.00;101216.75;5262636;28;20219;-67
2022/09/17 00:27:19;;;;;;;13.07;3.53;;;;;;;9.56;100.00;101219.34;5262654;28;20028;-66
2022/09/17 00:29:51;;;;;;;12.10;3.43;;;;;;;9.56;100.00;101204.59;5262876;28;20402;-67
2022/09/17 00:32:22;;;;;;;12.67;2.80;;;;;;;9.56;100.00;101212.41;5260279;28;20029;-68
2022/09/17 00:34:54;;;;;;;16.47;3.10;;;;;;;9.59;100.00;101217.59;5261948;28;20029;-69
2022/09/17 00:37:25;;;;;;;13.60;3.03;;;;;;;9.56;100.00;101222.81;5261855;28;20063;-68
2022/09/17 00:39:56;;;;;;;11.20;3.23;;;;;;;9.58;100.00;101222.81;5262562;28;20033;-69
2022/09/17 00:42:27;;;;;;;14.30;3.43;;;;;;;9.59;100.00;101225.41;5260309;28;20037;-67
2022/09/17 00:44:59;;;;;;;11.53;2.97;;;;;;;9.63;100.00;101228.91;5261160;28;20032;-68
2022/09/17 00:47:38;;;;;;;14.32;3.28;;;;;;;9.64;100.00;101225.41;5262131;28;20029;-68
2022/09/17 00:50:14;;;;;;;10.20;3.00;;;;;;;9.67;100.00;101220.19;5262755;28;20380;-68
2022/09/17 00:53:04;;;;;;;12.75;2.72;;;;;;;9.67;100.00;101221.06;5259187;28;20527;-67
2022/09/17 00:55:39;;;;;;;13.40;3.47;;;;;;;9.71;100.00;101232.34;5262330;28;20103;-68
2022/09/17 00:58:13;;;;;;;13.50;3.55;;;;;;;9.69;100.00;101226.25;5262026;28;20029;-67
2022/09/17 01:00:45;;;;;;;16.05;3.88;;;;;;;9.68;100.00;101230.59;5262661;28;20083;-67
2022/09/17 01:03:17;;;;;;;;;;;;;;;9.71;100.00;101232.34;5262430;28;20040;-67
2022/09/17 01:06:11;;;;;;;10.40;2.50;;;;;;;9.67;100.00;101231.47;5262000;28;20312;-67
2022/09/17 01:09:04;;;;;;;12.15;2.95;;;;;;;9.69;100.00;101223.66;5259924;28;20033;-67
2022/09/17 01:12:07;;;;;;;10.48;3.05;;;;;;;9.69;100.00;101231.47;5259910;28;20041;-68
2022/09/17 01:14:50;;;;;;;20.40;3.80;;;;;;;9.68;100.00;101232.34;5262032;28;20029;-67
2022/09/17 01:17:25;;;;;;;13.93;3.00;;;;;;;9.67;100.00;101228.00;5260279;28;20283;-68
2022/09/17 01:20:35;;;;;;;14.23;3.97;;;;;;;9.72;100.00;101228.84;5262194;28;20348;-67
2022/09/17 01:23:43;;;;;;;15.30;3.03;;;;;;;9.73;100.00;101235.81;5262151;28;20029;-67
2022/09/17 01:26:30;;;;;;;18.33;4.38;;;;;;;9.74;100.00;101237.56;5262364;28;20033;-68
2022/09/17 01:29:23;;;;;;;11.68;2.90;;;;;;;9.75;100.00;101248.81;5262281;28;20043;-67
2022/09/17 01:32:05;;;;;;;10.25;2.47;;;;;;;9.76;100.00;101242.75;5261785;28;20108;-67
2022/09/17 01:34:57;;;;;;;12.37;3.17;;;;;;;9.79;100.00;101255.78;5265691;28;20043;-67
2022/09/17 01:37:42;;;;;;;16.58;3.85;;;;;;;9.79;100.00;101254.03;5266098;28;20033;-69
2022/09/17 01:40:27;;;;;;;14.25;3.42;;;;;;;9.79;100.00;101248.81;5266421;28;20033;-66
2022/09/17 01:43:17;;;;;;;13.57;3.33;;;;;;;9.80;100.00;101247.06;5266444;28;20407;-67
2022/09/17 01:45:56;;;;;;;13.02;2.95;;;;;;;9.78;100.00;101252.28;5266248;28;20021;-67
2022/09/17 01:48:34;;;;;;;14.13;3.28;;;;;;;9.78;100.00;101251.41;5266202;28;20177;-67
2022/09/17 01:51:09;;;;;;;13.48;3.00;;;;;;;9.77;100.00;101257.50;5266085;28;20499;-70
2022/09/17 01:53:47;;;;;;;14.48;3.55;;;;;;;9.75;100.00;101254.88;5265895;28;20117;-67
2022/09/17 01:56:23;;;;;;;16.83;3.25;;;;;;;9.73;100.00;101255.78;5266052;28;20090;-67
2022/09/17 01:59:46;;;;;;;13.15;3.72;;;;;;;9.74;100.00;101257.50;5265972;28;20036;-67
2022/09/17 02:02:31;;;;;;;16.42;3.58;;;;;;;9.68;100.00;101251.44;5201471;28;20061;-68
2022/09/17 02:05:10;;;;;;;11.30;3.30;;;;;;;9.63;100.00;101266.19;5265806;28;20376;-68
2022/09/17 02:07:48;;;;;;;14.45;3.13;;;;;;;9.59;100.00;101261.00;5266037;28;20024;-67
2022/09/17 02:10:26;;;;;;;15.05;2.65;;;;;;;9.58;100.00;101254.94;5265369;28;20073;-68
2022/09/17 02:13:03;;;;;;;15.82;3.08;;;;;;;9.59;100.00;101253.19;5264611;28;20451;-68
2022/09/17 02:15:39;;;;;;;14.18;3.90;;;;;;;9.58;100.00;101254.03;5265711;28;20404;-68
2022/09/17 02:18:35;;;;;;;14.52;2.85;;;;;;;9.59;100.00;101258.38;5265604;28;20025;-69
2022/09/17 02:21:30;;;;;;;13.02;4.40;;;;;;;9.61;100.00;101257.53;5265858;28;20033;-68
2022/09/17 02:24:11;;;;;;;13.88;2.70;;;;;;;9.61;100.00;101249.72;5224564;28;20098;-68
2022/09/17 02:26:54;;;;;;;13.32;3.08;;;;;;;9.62;100.00;101251.44;5265035;28;20031;-68
2022/09/17 02:29:33;;;;;;;15.68;3.40;;;;;;;9.65;100.00;101258.38;5265773;28;20031;-67
2022/09/17 02:32:05;;;;;;;15.85;3.25;;;;;;;9.63;100.00;101262.72;5265420;28;20029;-68
2022/09/17 02:34:37;;;;;;;13.83;2.73;;;;;;;9.60;100.00;101265.34;5265209;28;20526;-69
2022/09/17 02:37:09;;;;;;;13.57;2.60;;;;;;;9.56;100.00;101268.81;5265224;28;20033;-68
2022/09/17 02:39:41;;;;;;;12.47;3.93;;;;;;;9.52;100.00;101264.47;5265082;28;20040;-68
2022/09/17 02:42:25;;;;;;;12.32;2.65;;;;;;;9.47;100.00;101265.34;5265621;28;20128;-68
2022/09/17 02:45:13;;;;;;;15.52;3.85;;;;;;;9.45;100.00;101269.69;5264551;28;20448;-68
2022/09/17 02:48:05;;;;;;;15.40;3.05;;;;;;;9.42;100.00;101272.28;5265093;28;20083;-68
2022/09/17 02:50:55;;;;;;;11.03;3.40;;;;;;;9.42;100.00;101267.09;5264648;28;20060;-67
2022/09/17 02:53:44;;;;;;;16.52;3.45;;;;;;;9.38;100.00;101262.72;5264964;28;20117;-67
2022/09/17 02:56:27;;;;;;;16.15;3.20;;;;;;;9.36;100.00;101272.28;5265141;28;20402;-68
2022/09/17 02:59:19;;;;;;;14.45;3.63;;;;;;;9.31;100.00;101269.69;5265117;28;20029;-67
2022/09/17 03:01:55;;;;;;;14.32;3.28;;;;;;;9.25;100.00;101271.41;5264401;28;20029;-68
2022/09/17 03:04:28;;;;;;;15.82;4.10;;;;;;;9.20;100.00;101270.56;5264694;28;20519;-66
2022/09/17 03:07:05;;;;;;;19.77;3.50;;;;;;;9.15;100.00;101273.13;5264549;28;20025;-68
2022/09/17 03:09:36;;;;;;;13.18;3.17;;;;;;;9.10;100.00;101272.28;5264513;28;20114;-68
2022/09/17 03:12:10;;;;;;;13.50;3.37;;;;;;;9.04;100.00;101265.31;5264574;28;20380;-68
2022/09/17 03:14:41;;;;;;;9.60;2.67;;;;;;;9.03;100.00;101263.59;5263152;28;20025;-68
2022/09/17 03:17:13;;;;;;;11.40;3.10;;;;;;;9.02;100.00;101261.00;5264548;28;20499;-68
2022/09/17 03:19:45;;;;;;;16.10;4.05;;;;;;;9.01;100.00;101265.31;5263479;28;20072;-68
2022/09/17 03:22:16;;;;;;;15.33;3.67;;;;;;;9.02;100.00;101272.25;5264322;28;20048;-67
2022/09/17 03:24:47;;;;;;;13.00;2.67;;;;;;;9.04;100.00;101265.31;5264365;28;20033;-67
2022/09/17 03:27:19;;;;;;;12.17;3.47;;;;;;;9.07;100.00;101261.88;5262981;28;20079;-68
2022/09/17 03:29:50;;;;;;;15.87;2.87;;;;;;;9.09;100.00;101252.31;5264619;28;20029;-68
2022/09/17 03:32:21;;;;;;;12.20;4.00;;;;;;;9.09;100.00;101266.19;5263918;28;20051;-67
2022/09/17 03:34:53;;;;;;;7.60;2.73;;;;;;;9.09;100.00;101257.53;5264135;28;20025;-68
2022/09/17 03:37:25;;;;;;;10.57;2.77;;;;;;;9.08;100.00;101259.28;5263760;28;20041;-67
2022/09/17 03:39:56;;;;;;;15.87;4.00;;;;;;;9.09;100.00;101260.13;5262761;28;20384;-68
2022/09/17 03:42:27;;;;;;;14.70;2.50;;;;;;;9.06;100.00;101263.56;5262872;28;20049;-67
2022/09/17 03:44:59;;;;;;;13.40;3.43;;;;;;;9.07;100.00;101267.94;5263964;28;20033;-67
2022/09/17 03:47:30;;;;;;;18.63;3.40;;;;;;;9.05;100.00;101267.06;5262531;28;20468;-67
2022/09/17 03:50:03;;;;;;;11.17;2.93;;;;;;;9.04;100.00;101269.66;5264374;28;20033;-67
2022/09/17 03:52:34;;;;;;;13.50;3.30;;;;;;;8.99;100.00;101266.19;5263779;28;20476;-67
2022/09/17 03:55:06;;;;;;;12.80;2.60;;;;;;;8.94;100.00;101263.59;5263581;28;20067;-67
2022/09/17 03:57:37;;;;;;;13.97;2.53;;;;;;;8.94;100.00;101268.78;5263182;28;20040;-68
2022/09/17 04:00:11;;;;;;;14.70;3.03;;;;;;;8.93;100.00;101273.13;5263581;28;20391;-67
2022/09/17 04:02:42;;;;;;;14.23;2.90;;;;;;;8.91;100.00;101266.19;5263245;28;20464;-67
2022/09/17 04:05:14;;;;;;;18.93;2.70;;;;;;;8.87;100.00;101269.63;5263215;28;20039;-65
2022/09/17 04:07:45;;;;;;;16.23;3.13;;;;;;;8.82;100.00;101273.94;5263415;28;20037;-67
2022/09/17 04:10:17;;;;;;;11.00;2.47;;;;;;;8.80;100.00;101273.94;5263282;28;20140;-67
2022/09/17 04:12:48;;;;;;;17.40;2.87;;;;;;;8.76;100.00;101275.66;5263391;28;20064;-68
2022/09/17 04:15:20;;;;;;;10.70;4.03;;;;;;;8.78;100.00;101280.03;5263575;28;20083;-68
2022/09/17 04:17:56;;;;;;;13.80;5.53;;;;;;;8.75;100.00;101286.91;5263276;28;20036;-67
2022/09/17 04:20:28;;;;;;;13.00;2.75;;;;;;;8.70;100.00;101283.44;5263363;28;20495;-66
2022/09/17 04:23:00;;;;;;;11.17;2.90;;;;;;;8.68;100.00;101281.72;5262872;28;20033;-68
2022/09/17 04:25:32;;;;;;;13.35;3.83;;;;;;;8.68;100.00;101287.78;5261895;28;20030;-67
2022/09/17 04:28:03;;;;;;;13.90;3.08;;;;;;;8.68;100.00;101287.78;5263150;28;20551;-67
2022/09/17 04:30:35;;;;;;;12.57;3.03;;;;;;;8.67;100.00;101288.63;5262936;28;20112;-68
2022/09/17 04:33:06;;;;;;;10.00;3.13;;;;;;;8.66;100.00;101286.03;5262606;28;20124;-67
2022/09/17 04:35:37;;;;;;;13.30;3.10;;;;;;;8.64;100.00;101285.16;5262876;28;20383;-67
2022/09/17 04:38:09;;;;;;;12.03;3.20;;;;;;;8.67;100.00;101288.63;5262727;28;20086;-68
2022/09/17 04:40:41;;;;;;;13.07;2.67;;;;;;;8.68;100.00;101290.38;5263030;28;20055;-67
2022/09/17 04:43:12;;;;;;;11.47;2.70;;;;;;;8.72;100.00;101291.25;5261620;28;20033;-67
2022/09/17 04:45:46;;;;;;;14.27;2.57;;;;;;;8.76;100.00;101296.47;5262724;28;20366;-67
2022/09/17 04:48:17;;;;;;;16.65;3.28;;;;;;;8.78;100.00;101298.22;5262344;28;20419;-67
2022/09/17 04:50:48;;;;;;;10.77;2.83;;;;;;;8.78;100.00;101301.66;5263221;28;20044;-68
2022/09/17 04:53:20;;;;;;;10.10;2.77;;;;;;;8.81;100.00;101293.03;5262533;28;20036;-68
2022/09/17 04:55:51;;;;;;;13.97;2.63;;;;;;;8.77;100.00;101286.94;5261292;28;20033;-68
2022/09/17 04:58:23;;;;;;;16.17;3.53;;;;;;;8.79;100.00;101284.34;5262745;28;20087;-68
2022/09/17 05:00:54;;;;;;;17.73;3.13;;;;;;;8.79;100.00;101292.13;5262858;28;20052;-68
2022/09/17 05:03:25;;;;;;;16.13;2.53;;;;;;;8.75;100.00;101289.53;5261961;28;20040;-67
2022/09/17 05:05:57;;;;;;;15.17;2.57;;;;;;;8.78;100.00;101288.69;5262773;28;20032;-67
2022/09/17 05:08:28;;;;;;;11.97;3.80;;;;;;;8.78;100.00;101298.22;5262130;28;20029;-68
2022/09/17 05:10:59;;;;;;;11.47;2.50;;;;;;;8.76;100.00;101291.28;5261138;28;20480;-68
2022/09/17 05:13:31;;;;;;;13.90;2.67;;;;;;;8.75;100.00;101299.91;5262105;28;20032;-68
2022/09/17 05:16:02;;;;;;;14.00;3.00;;;;;;;8.73;100.00;101306.84;5261992;28;20052;-68
2022/09/17 05:18:33;;;;;;;15.00;3.60;;;;;;;8.71;100.00;101299.91;5261092;28;20051;-67
2022/09/17 05:21:05;;;;;;;15.90;3.53;;;;;;;8.68;100.00;101300.78;5262832;28;20062;-68
2022/09/17 05:23:36;;;;;;;12.87;3.63;;;;;;;8.67;100.00;101305.97;5261472;28;20115;-68
2022/09/17 05:26:08;;;;;;;12.77;3.43;;;;;;;8.64;100.00;101311.16;5261818;28;20056;-68
2022/09/17 05:28:39;;;;;;;18.67;3.77;;;;;;;8.61;100.00;101324.13;5262291;28;20060;-68
2022/09/17 05:31:10;;;;;;;11.53;2.83;;;;;;;8.57;100.00;101324.13;5260817;28;20060;-68
2022/09/17 05:33:42;;;;;;;19.03;3.67;;;;;;;8.55;100.00;101319.78;5261819;28;20033;-68
2022/09/17 05:36:13;;;;;;;14.83;2.73;;;;;;;8.55;100.00;101319.78;5260925;28;20040;-68
2022/09/17 05:38:44;;;;;;;15.63;3.17;;;;;;;8.53;100.00;101322.38;5260695;28;20033;-67
2022/09/17 05:41:16;;;;;;;10.23;3.03;;;;;;;8.50;100.00;101317.16;5262083;28;20391;-68
2022/09/17 05:43:48;;;;;;;12.90;2.70;;;;;;;8.53;100.00;101314.59;5262067;28;20112;-68
2022/09/17 05:46:19;;;;;;;16.15;3.22;;;;;;;8.57;100.00;101321.53;5261994;28;20032;-68
2022/09/17 05:48:55;;;;;;;16.17;3.53;;;;;;;8.63;100.00;101318.09;5261963;28;20033;-68
2022/09/17 05:51:26;;;;;;;14.00;2.58;;;;;;;8.67;100.00;101316.38;5262208;28;20415;-67
2022/09/17 05:53:57;;;;;;;15.57;3.00;;;;;;;8.64;100.00;101324.16;5261953;28;20033;-68
2022/09/17 05:56:29;;;;;;;15.83;2.70;;;;;;;8.65;100.00;101328.50;5261974;28;20036;-67
2022/09/17 05:59:01;;;;;;;13.00;3.00;;;;;;;8.68;100.00;101333.72;5262043;28;20040;-68
2022/09/17 06:01:32;;;;;;;10.37;3.83;;;;;;;8.71;100.00;101344.97;5261647;28;20025;-70
2022/09/17 06:04:03;;;;;;;11.83;3.10;;;;;;;8.80;100.00;101351.94;5260253;28;20067;-67
2022/09/17 06:06:36;;;;;;;12.57;3.17;;;;;;;8.88;100.00;101358.03;5243951;28;20056;-67
2022/09/17 06:09:09;;;;;;;12.95;2.70;;;;;;;8.89;100.00;101364.09;5261780;28;20053;-68
2022/09/17 06:11:40;;;;;;;13.57;2.85;;;;;;;8.91;100.00;101372.78;5262094;28;20078;-67
2022/09/17 06:14:12;;;;;;;14.87;3.50;;;;;;;8.94;100.00;101365.00;5262431;28;20033;-67
2022/09/17 06:16:44;;;;;;;17.73;3.88;;;;;;;8.93;100.00;101356.31;5262377;28;20451;-67
2022/09/17 06:19:15;;;;;;;11.07;3.20;;;;;;;8.98;100.00;101358.06;5262549;28;20037;-69
2022/09/17 06:21:46;;;;;;;13.53;3.33;;;;;;;9.00;100.00;101359.81;5265746;28;20036;-68
2022/09/17 06:24:18;;;;;;;12.60;3.07;;;;;;;9.04;100.00;101352.88;5264612;28;20087;-69
2022/09/17 06:26:51;;;;;;;16.03;3.00;;;;;;;9.06;100.00;101356.34;5256806;28;20033;-69
2022/09/17 06:29:22;;;;;;;13.55;3.25;;;;;;;9.06;100.00;101361.53;5263874;28;20041;-68
2022/09/17 06:31:54;;;;;;;9.47;2.80;;;;;;;9.05;100.00;101358.09;5264227;28;20037;-68
2022/09/17 06:34:25;;;;;;;13.33;2.87;;;;;;;9.02;100.00;101359.81;5262339;28;20049;-68
2022/09/17 06:36:57;;;;;;;11.40;2.60;;;;;;;8.99;100.00;101360.66;5262817;28;20048;-69
2022/09/17 06:39:28;;;;;;;17.13;3.53;;;;;;;8.96;100.00;101349.41;5261651;28;20048;-67
2022/09/17 06:41:59;;;;;;;14.20;3.07;;;;;;;8.97;100.00;101359.78;5263230;28;20124;-68
2022/09/17 06:44:31;;;;;;;11.43;3.03;;;;;;;9.02;100.00;101357.22;5261900;28;20051;-68
2022/09/17 06:47:02;;;;;;;9.60;2.60;;;;;;;9.07;100.00;101351.16;5263885;28;20120;-67
2022/09/17 06:49:34;;;;;;;9.60;2.87;;;;;;;9.16;100.00;101355.53;5262420;28;20346;-68
2022/09/17 06:52:05;;;;;;;11.87;2.47;;;;;;;9.31;100.00;101352.06;5249420;28;20056;-68
2022/09/17 06:54:37;;;;;;;11.63;3.10;;;;;;;9.36;100.00;101350.34;5242281;28;20425;-68
2022/09/17 06:57:08;;;;;;;12.77;2.83;;;;;;;9.40;100.00;101346.88;5257476;28;20037;-67
2022/09/17 06:59:41;;;;;;;13.50;5.33;;;;;;;9.39;100.00;101345.13;5241321;28;20910;-68
2022/09/17 07:02:13;;;;;;;9.48;2.00;;;;;;;9.44;100.00;101358.16;5263229;28;20060;-69
2022/09/17 07:04:44;;;;;;;9.00;2.30;;;;;;;9.47;100.00;101361.63;5261954;28;20135;-67
2022/09/17 07:07:15;;;;;;;11.03;2.60;;;;;;;9.63;100.00;101356.44;5261437;28;20040;-68
2022/09/17 07:09:47;;;;;;;9.23;2.40;;;;;;;9.86;100.00;101354.69;5263012;28;20136;-67
2022/09/17 07:12:19;;;;;;;10.20;2.93;;;;;;;10.05;99.19;101362.50;5263476;28;20021;-67
2022/09/17 07:14:51;;;;;;;9.82;2.47;;;;;;;10.21;99.66;101369.41;5261717;28;20029;-66
2022/09/17 07:17:23;;;;;;;7.20;2.05;;;;;;;10.32;97.94;101360.69;5263747;28;20469;-67
2022/09/17 07:19:54;;;;;;;8.43;2.40;;;;;;;10.35;96.62;101369.41;5263117;28;20108;-68
2022/09/17 07:22:25;;;;;;;9.17;2.63;;;;;;;10.46;96.57;101371.97;5260547;28;20037;-68
2022/09/17 07:24:57;;;;;;;7.20;2.13;;;;;;;10.51;94.16;101379.78;5262740;28;20483;-66
2022/09/17 07:27:29;;;;;;;11.50;2.30;;;;;;;10.61;94.60;101381.50;5262321;28;20029;-67
2022/09/17 07:30:01;;;;;;;10.05;2.40;;;;;;;10.75;94.65;101378.84;5257822;28;20045;-67
2022/09/17 07:32:32;;;;;;;12.27;2.80;;;;;;;10.75;92.62;101384.94;5247491;28;20053;-67
2022/09/17 07:35:04;;;;;;;8.10;2.80;;;;;;;10.93;94.06;101375.28;5251903;28;20033;-68
2022/09/17 07:37:35;;;;;;;9.37;2.77;;;;;;;11.03;92.83;101379.59;5263995;28;20047;-68
2022/09/17 07:40:07;;;;;;;17.53;3.10;;;;;;;11.09;91.64;101371.72;5245565;28;20048;-68
2022/09/17 07:42:39;;;;;;;12.40;2.53;;;;;;;11.16;90.47;101372.56;5241353;28;20116;-68
2022/09/17 07:45:11;;;;;;;8.13;2.97;;;;;;;11.38;90.99;101364.59;5257766;28;20037;-68
2022/09/17 07:47:43;;;;;;;9.47;2.10;;;;;;;11.54;90.80;101365.34;5242772;28;20030;-68
2022/09/17 07:50:15;;;;;;;7.65;2.90;;;;;;;11.47;87.14;101364.53;5242212;28;20108;-66
2022/09/17 07:52:47;;;;;;;8.90;2.35;;;;;;;11.52;87.51;101375.78;5257834;28;20040;-67
2022/09/17 07:55:18;;;;;;;10.70;2.33;;;;;;;11.52;86.97;101375.78;5241782;28;20021;-68
2022/09/17 07:57:51;;;;;;;6.90;1.83;;;;;;;11.60;86.92;101375.75;5242380;28;20052;-68
2022/09/17 08:00:22;;;;;;;9.23;2.65;;;;;;;11.53;85.82;101369.72;5242210;28;20060;-67
2022/09/17 08:02:55;;;;;;;7.03;2.03;;;;;;;11.42;86.41;101379.34;5241836;28;20037;-67
2022/09/17 08:05:26;;;;;;;7.50;2.20;;;;;;;11.54;87.40;101375.78;5241891;28;20045;-68
2022/09/17 08:07:58;;;;;;;5.63;1.87;;;;;;;11.62;86.54;101369.66;5241131;28;20040;-68
2022/09/17 08:10:29;;;;;;;5.53;1.77;;;;;;;11.83;86.99;101370.31;5241095;28;20529;-68
2022/09/17 08:13:00;;;;;;;10.13;2.37;;;;;;;12.00;85.77;101368.47;5250380;28;20114;-69
2022/09/17 08:15:32;;;;;;;8.93;2.93;;;;;;;12.27;87.96;101370.81;5252150;28;20028;-68
2022/09/17 08:18:03;;;;;;;11.37;2.70;;;;;;;12.29;84.82;101380.38;5250803;28;20040;-67
2022/09/17 08:20:35;;;;;;;8.73;3.27;;;;;;;12.22;82.96;101374.34;5250800;28;20026;-68
2022/09/17 08:23:06;;;;;;;14.47;2.90;;;;;;;12.24;83.85;101376.97;5252197;28;20534;-68
2022/09/17 08:25:37;;;;;;;7.70;1.80;;;;;;;12.33;84.89;101381.22;5240346;28;20515;-69
2022/09/17 08:28:09;;;;;;;9.67;2.30;;;;;;;12.33;83.54;101383.81;5241566;28;20031;-68
2022/09/17 08:30:41;;;;;;;8.43;2.30;;;;;;;12.32;80.63;101376.88;5241249;28;20390;-68
2022/09/17 08:33:13;;;;;;;8.00;1.93;;;;;;;12.42;81.82;101382.88;5242237;28;20079;-67
2022/09/17 08:35:58;;;;;;;5.57;2.13;;;;;;;12.33;81.08;101384.72;5223744;28;20037;-67
2022/09/17 08:38:32;;;;;;;7.68;2.55;;;;;;;12.42;81.92;101382.88;5241992;28;20376;-69
2022/09/17 08:41:06;;;;;;;5.32;1.90;;;;;;;12.56;82.09;101383.59;5241027;28;20448;-69
2022/09/17 08:44:03;;;;;;;10.55;2.78;;;;;;;12.59;80.94;101379.19;5240198;28;20035;-68
2022/09/17 08:46:46;;;;;;;11.18;2.25;;;;;;;12.68;80.01;101387.81;5239739;28;20025;-67
2022/09/17 08:49:34;;;;;;;6.75;2.40;;;;;;;12.84;80.10;101385.88;5240819;28;20017;-68
2022/09/17 08:52:23;;;;;;;7.05;2.28;;;;;;;12.99;80.11;101387.41;5241643;28;20329;-68
2022/09/17 08:55:24;;;;;;;6.68;1.70;;;;;;;13.26;79.47;101386.16;5240994;28;20365;-68
2022/09/17 08:58:04;;;;;;;8.40;1.90;;;;;;;13.74;76.49;101386.34;5241188;28;20041;-67
2022/09/17 09:00:50;;;;;;;9.63;2.17;;;;;;;13.75;74.12;101392.44;5241110;28;20115;-68
2022/09/17 09:03:41;;;;;;;6.93;1.88;;;;;;;13.97;74.10;101395.56;5241496;28;20026;-67
2022/09/17 09:06:14;;;;;;;5.13;1.48;;;;;;;14.13;71.28;101390.94;5240655;28;20029;-68
2022/09/17 09:08:55;;;;;;;4.72;1.55;;;;;;;14.01;70.19;101395.50;5241402;28;20117;-68
2022/09/17 09:11:29;;;;;;;8.05;1.95;;;;;;;13.90;71.19;101391.34;5240933;28;20084;-68
2022/09/17 09:14:46;;;;;;;8.60;2.65;;;;;;;13.69;73.90;101401.28;5240075;28;20041;-69
2022/09/17 09:17:21;;;;;;;8.43;3.28;;;;;;;13.21;76.78;101395.84;5157509;29;20118;-67
2022/09/17 09:19:53;;;;;;;12.95;2.22;;;;;;;13.13;79.51;101396.81;5157097;29;20063;-67
2022/09/17 09:22:33;;;;;;;5.10;1.73;;;;;;;13.40;80.18;101397.34;5210542;28;20480;-68
2022/09/17 09:25:19;;;;;;;6.78;1.75;;;;;;;13.43;77.43;101399.94;5240234;28;20388;-68
2022/09/17 09:28:16;;;;;;;7.93;1.90;;;;;;;13.48;78.96;101395.47;5241289;28;20085;-67
2022/09/17 09:31:36;;;;;;;8.20;1.65;;;;;;;14.81;75.25;101398.41;5240800;28;20025;-69
2022/09/17 09:34:09;;;;;;;6.82;1.98;;;;;;;15.67;69.33;101395.63;5180275;28;20049;-68
2022/09/17 09:36:40;;;;;;;5.20;1.70;;;;;;;16.29;69.91;101397.56;5240952;28;20025;-67
2022/09/17 09:39:20;;;;;;;11.50;2.03;;;;;;;17.29;67.53;101396.47;5240622;28;20026;-70
2022/09/17 09:41:57;;;;;;;6.65;1.73;;;;;;;17.00;61.22;101394.72;5241344;28;20029;-68
2022/09/17 09:44:29;;;;;;;10.48;2.78;;;;;;;16.69;63.92;101400.88;5238999;28;20044;-68
2022/09/17 09:47:11;;;;;;;9.87;1.80;;;;;;;16.41;60.73;101399.00;5240674;28;20025;-69
2022/09/17 09:50:21;;;;;;;9.23;2.28;;;;;;;15.65;61.22;101400.06;5240519;28;20030;-68
2022/09/17 09:53:09;;;;;;;67.00;15.27;;;;;;;14.90;66.14;101392.94;5241356;28;20029;-68
2022/09/17 09:56:02;;;;;;;12.02;2.50;;;;;;;14.28;68.06;101397.66;5243652;28;20026;-67
2022/09/17 09:58:38;;;;;;;6.82;1.90;;;;;;;13.73;69.38;101404.72;5245445;28;20029;-67
2022/09/17 10:01:21;;;;;;;6.75;1.80;;;;;;;13.50;79.03;101409.41;5245042;28;20029;-68
2022/09/17 10:03:54;;;;;;;8.90;2.05;;;;;;;13.57;75.04;101406.69;5245926;28;20461;-67
2022/09/17 10:06:29;;;;;;;7.20;1.80;;;;;;;13.94;73.39;101400.88;5244897;28;20083;-66
2022/09/17 10:09:00;;;;;;;5.00;2.13;;;;;;;14.39;71.80;101403.56;5245126;28;20493;-68
2022/09/17 10:11:32;;;;;;;4.10;1.40;;;;;;;15.27;69.09;101400.03;5244064;28;20100;-67
2022/09/17 10:14:36;;;;;;;6.63;1.50;;;;;;;16.46;67.13;101398.88;5245017;28;20029;-67
2022/09/17 10:17:22;;;;;;;5.35;1.50;;;;;;;16.24;65.71;101394.19;5229483;28;20096;-68
2022/09/17 10:20:12;;;;;;;7.38;2.85;;;;;;;16.06;66.30;101390.28;5243866;28;20441;-68
2022/09/17 10:22:45;;;;;;;4.95;1.40;;;;;;;17.28;63.05;101400.03;5244678;28;20113;-67
2022/09/17 10:25:23;;;;;;;4.78;1.30;;;;;;;17.40;56.49;101404.91;5243805;28;20376;-67
2022/09/17 10:27:57;;;;;;;3.35;0.95;;;;;;;18.04;54.84;101398.47;5244408;28;20397;-68
2022/09/17 10:30:29;;;;;;;6.82;1.90;;;;;;;18.28;51.38;101401.19;5243440;28;20041;-69
2022/09/17 10:33:13;;;;;;;5.50;1.33;;;;;;;18.81;51.75;101394.88;5249147;28;20120;-68
2022/09/17 10:35:57;;;;;;;5.90;1.55;;;;;;;17.90;52.79;101390.16;5256695;28;20112;-68
2022/09/17 10:38:32;;;;;;;6.47;1.58;;;;;;;16.31;59.12;101406.28;5255253;28;20017;-68
2022/09/17 10:41:13;;;;;;;6.22;1.52;;;;;;;14.81;66.41;101397.53;5255338;28;20064;-69
2022/09/17 10:43:44;;;;;;;6.05;2.05;;;;;;;13.94;71.64;101407.00;5260565;28;20036;-67
2022/09/17 10:46:30;;;;;;;7.10;2.03;;;;;;;13.66;75.08;101396.94;5264146;28;20460;-69
2022/09/17 10:49:10;;;;;;;5.10;1.50;;;;;;;13.85;75.05;101394.91;5264309;28;20795;-69
2022/09/17 10:51:43;;;;;;;4.78;1.40;;;;;;;14.83;77.89;101400.97;5264226;28;20121;-69
2022/09/17 10:54:39;;;;;;;;;;;;;;;15.24;71.07;101397.47;5250126;28;20091;-70
2022/09/17 10:57:19;;;;;;;4.40;1.52;;;;;;;14.94;70.91;101385.88;5241926;28;20344;-68
2022/09/17 11:00:14;;;;;;;5.63;1.20;;;;;;;15.38;70.79;101384.03;5243085;28;20354;-68
2022/09/17 11:03:37;;;;;;;4.43;1.38;;;;;;;17.22;66.56;101380.00;5243168;28;20583;-68
2022/09/17 11:06:33;;;;;;;4.93;1.20;;;;;;;17.13;58.31;101389.06;5196678;28;20038;-66
2022/09/17 11:09:24;;;;;;;4.35;1.13;;;;;;;16.57;61.73;101383.66;5243173;28;20485;-67
2022/09/17 11:12:20;;;;;;;4.47;1.02;;;;;;;15.09;62.83;101388.19;5242306;28;20456;-67
2022/09/17 11:15:11;;;;;;;4.05;1.25;;;;;;;15.00;64.98;101383.13;5242569;28;20034;-68
2022/09/17 11:18:16;;;;;;;2.30;1.17;;;;;;;14.81;65.38;101379.16;5243511;28;20034;-68
2022/09/17 11:21:27;;;;;;;3.80;1.20;;;;;;;16.01;64.59;101385.13;5240025;28;20069;-67
2022/09/17 11:24:22;;;;;;;3.38;1.27;;;;;;;17.47;61.50;101372.19;5225173;28;20049;-68
2022/09/17 11:27:19;;;;;;;4.28;1.52;;;;;;;17.80;55.57;101382.53;5241520;28;20132;-67
2022/09/17 11:30:04;;;;;;;5.75;1.60;;;;;;;18.36;57.66;101375.38;5248010;28;20039;-67
2022/09/17 11:33:31;;;;;;;2.20;1.02;;;;;;;19.52;51.86;101371.84;5262338;28;20033;-67
2022/09/17 11:36:12;;;;;;;3.30;1.48;;;;;;;19.29;54.58;101362.22;5197781;28;20046;-67
2022/09/17 11:38:48;;;;;;;4.30;1.17;;;;;;;17.14;55.58;101379.38;5263096;28;20029;-66
2022/09/17 11:41:26;;;;;;;5.82;1.30;;;;;;;17.01;59.87;101365.72;5261705;28;20111;-67
2022/09/17 11:44:25;;;;;;;6.63;1.60;;;;;;;16.42;61.45;101371.78;5262113;28;20032;-67
2022/09/17 11:47:02;;;;;;;5.03;1.40;;;;;;;15.31;63.62;101374.56;5257324;28;20039;-67
2022/09/17 11:49:56;;;;;;;5.43;1.90;;;;;;;15.77;66.36;101368.22;5262207;28;20064;-69
2022/09/17 11:52:37;;;;;;;3.28;1.20;;;;;;;18.19;61.47;101373.34;5258317;28;20028;-69
2022/09/17 11:55:26;;;;;;;3.50;1.15;;;;;;;19.25;56.63;101377.31;5260597;28;20404;-68
2022/09/17 11:58:28;;;;;;;5.45;1.35;;;;;;;19.53;57.87;101370.06;5262740;28;20061;-69
2022/09/17 12:01:05;;;;;;;3.83;1.48;;;;;;;18.57;55.13;101368.47;5240813;28;20045;-69
2022/09/17 12:03:46;;;;;;;4.78;1.83;;;;;;;18.29;55.81;101372.09;5241791;28;20041;-67
2022/09/17 12:06:30;;;;;;;4.18;1.45;;;;;;;18.22;55.23;101368.84;5241610;28;20449;-68
2022/09/17 12:09:31;;;;;;;6.43;1.67;;;;;;;18.92;56.27;101367.16;5240718;28;20033;-67
2022/09/17 12:12:09;;;;;;;6.28;2.20;;;;;;;18.12;55.51;101364.78;5252430;28;20405;-68